createdAt,value
2023-05-20T00:02:55.393Z,14.52
2023-05-20T00:06:00.797Z,9.95
2023-05-20T00:09:03.785Z,12.60
2023-05-20T00:12:06.884Z,9.87
2023-05-20T00:15:12.130Z,10.20
2023-05-20T00:18:15.160Z,10.48
2023-05-20T00:21:20.568Z,9.90
2023-05-20T00:24:23.412Z,12.00
2023-05-20T00:27:25.873Z,11.97
2023-05-20T00:30:28.909Z,12.60
2023-05-20T00:33:32.983Z,16.35
2023-05-20T00:36:36.069Z,9.43
2023-05-20T00:39:38.511Z,11.38
2023-05-20T00:42:44.163Z,17.60
2023-05-20T00:45:47.928Z,10.20
2023-05-20T00:48:51.416Z,15.65
2023-05-20T00:51:54.118Z,9.75
2023-05-20T00:54:57.937Z,13.25
2023-05-20T00:58:00.455Z,15.03
2023-05-20T01:01:05.051Z,12.85
2023-05-20T01:04:07.721Z,11.20
2023-05-20T01:07:10.417Z,11.40
2023-05-20T01:10:13.017Z,10.82
2023-05-20T01:13:21.754Z,12.93
2023-05-20T01:16:25.301Z,13.82
2023-05-20T01:19:38.396Z,10.20
2023-05-20T01:22:54.168Z,14.57
2023-05-20T01:25:56.905Z,11.45
2023-05-20T01:29:04.364Z,14.90
2023-05-20T01:32:11.767Z,14.98
2023-05-20T01:35:17.599Z,17.02
2023-05-20T01:38:23.492Z,11.52
2023-05-20T01:41:27.056Z,11.35
2023-05-20T01:44:30.167Z,14.40
2023-05-20T01:47:32.760Z,11.25
2023-05-20T01:50:36.155Z,12.98
2023-05-20T01:53:38.649Z,14.25
2023-05-20T01:56:41.527Z,11.65
2023-05-20T01:59:44.652Z,11.97
2023-05-20T02:02:47.657Z,13.43
2023-05-20T02:05:50.745Z,15.32
2023-05-20T02:08:53.283Z,13.60
2023-05-20T02:11:56.100Z,13.45
2023-05-20T02:14:58.577Z,14.37
2023-05-20T02:18:02.520Z,16.10
2023-05-20T02:21:05.906Z,12.80
2023-05-20T02:24:08.864Z,17.08
2023-05-20T02:27:11.430Z,14.63
2023-05-20T02:30:15.255Z,11.87
2023-05-20T02:33:18.337Z,13.13
2023-05-20T02:36:21.378Z,15.65
2023-05-20T02:39:23.938Z,21.15
2023-05-20T02:42:26.771Z,16.33
2023-05-20T02:45:31.275Z,14.10
2023-05-20T02:48:34.107Z,15.80
2023-05-20T02:51:37.086Z,12.57
2023-05-20T02:54:39.888Z,13.35
2023-05-20T02:57:46.024Z,12.82
2023-05-20T03:00:49.049Z,14.87
2023-05-20T03:03:51.558Z,13.57
2023-05-20T03:06:57.879Z,14.82
2023-05-20T03:10:00.351Z,14.60
2023-05-20T03:13:08.708Z,16.00
2023-05-20T03:16:13.279Z,14.67
2023-05-20T03:19:16.465Z,14.32
2023-05-20T03:22:18.903Z,13.75
2023-05-20T03:25:22.989Z,13.68
2023-05-20T03:28:26.105Z,13.30
2023-05-20T03:31:29.493Z,19.17
2023-05-20T03:34:32.127Z,14.43
2023-05-20T03:37:35.108Z,14.55
2023-05-20T03:40:37.839Z,15.18
2023-05-20T03:43:41.405Z,12.82
2023-05-20T03:46:44.014Z,14.47
2023-05-20T03:49:49.753Z,17.37
2023-05-20T03:52:52.250Z,12.02
2023-05-20T03:55:55.465Z,15.70
2023-05-20T03:58:58.332Z,13.45
2023-05-20T04:02:04.788Z,13.60
2023-05-20T04:05:09.059Z,13.55
2023-05-20T04:08:13.797Z,14.73
2023-05-20T04:11:17.542Z,13.10
2023-05-20T04:14:19.949Z,12.32
2023-05-20T04:17:22.752Z,12.13
2023-05-20T04:20:25.346Z,12.88
2023-05-20T04:23:28.714Z,13.77
2023-05-20T04:26:31.399Z,12.82
2023-05-20T04:29:37.106Z,12.48
2023-05-20T04:32:40.032Z,13.87
2023-05-20T04:35:44.634Z,15.60
2023-05-20T04:38:48.270Z,12.50
2023-05-20T04:41:51.213Z,12.93
2023-05-20T04:44:53.866Z,10.95
2023-05-20T04:47:56.842Z,12.03
2023-05-20T04:50:59.771Z,11.43
2023-05-20T04:54:02.569Z,11.32
2023-05-20T04:57:05.207Z,10.75
2023-05-20T05:00:12.771Z,14.27
2023-05-20T05:03:15.511Z,12.17
2023-05-20T05:06:18.531Z,11.52
2023-05-20T05:09:24.425Z,14.13
2023-05-20T05:12:27.938Z,12.57
2023-05-20T05:15:33.427Z,11.25
2023-05-20T05:18:38.152Z,10.37
2023-05-20T05:21:40.745Z,15.00
2023-05-20T05:24:43.527Z,12.20
2023-05-20T05:27:46.130Z,18.23
2023-05-20T05:30:52.091Z,12.50
2023-05-20T05:33:54.431Z,16.23
2023-05-20T05:36:57.621Z,12.52
2023-05-20T05:40:03.680Z,13.23
2023-05-20T05:43:06.570Z,15.55
2023-05-20T05:46:09.916Z,15.20
2023-05-20T05:49:13.384Z,12.77
2023-05-20T05:52:16.100Z,11.05
2023-05-20T05:55:20.913Z,15.27
2023-05-20T05:58:29.552Z,12.88
2023-05-20T06:01:33.001Z,12.30
2023-05-20T06:04:36.135Z,13.73
2023-05-20T06:07:38.788Z,11.30
2023-05-20T06:10:41.827Z,8.43
2023-05-20T06:13:44.328Z,8.52
2023-05-20T06:16:47.117Z,8.30
2023-05-20T06:19:49.918Z,9.50
2023-05-20T06:22:52.999Z,8.80
2023-05-20T06:25:59.114Z,7.62
2023-05-20T06:29:02.584Z,8.32
2023-05-20T06:32:07.882Z,10.48
2023-05-20T06:35:11.547Z,9.93
2023-05-20T06:38:14.166Z,10.98
2023-05-20T06:41:17.020Z,11.70
2023-05-20T06:44:19.937Z,8.35
2023-05-20T06:47:26.102Z,10.68
2023-05-20T06:50:28.858Z,7.43
2023-05-20T06:53:31.661Z,13.18
2023-05-20T06:56:34.109Z,11.18
2023-05-20T06:59:41.843Z,12.40
2023-05-20T07:02:44.663Z,9.35
2023-05-20T07:05:48.194Z,9.37
2023-05-20T07:08:50.606Z,7.60
2023-05-20T07:11:55.254Z,10.82
2023-05-20T07:14:57.652Z,8.65
2023-05-20T07:18:01.278Z,8.43
2023-05-20T07:21:03.926Z,14.20
2023-05-20T07:24:07.619Z,8.07
2023-05-20T07:27:10.476Z,8.48
2023-05-20T07:30:19.647Z,11.55
2023-05-20T07:33:23.459Z,11.25
2023-05-20T07:36:27.771Z,15.13
2023-05-20T07:39:31.564Z,8.32
2023-05-20T07:42:35.486Z,9.35
2023-05-20T07:45:38.441Z,11.05
2023-05-20T07:48:42.429Z,9.35
2023-05-20T07:51:46.434Z,9.23
2023-05-20T07:54:51.977Z,10.68
2023-05-20T07:57:56.252Z,12.00
2023-05-20T08:01:00.246Z,9.60
2023-05-20T08:04:03.996Z,6.80
2023-05-20T08:07:06.653Z,12.67
2023-05-20T08:10:10.881Z,10.00
2023-05-20T08:13:13.917Z,8.25
2023-05-20T08:16:16.954Z,8.32
2023-05-20T08:19:20.298Z,8.68
2023-05-20T08:22:24.448Z,7.53
2023-05-20T08:25:27.267Z,8.38
2023-05-20T08:28:32.606Z,9.88
2023-05-20T08:31:35.968Z,8.68
2023-05-20T08:34:40.160Z,11.98
2023-05-20T08:37:42.580Z,7.80
2023-05-20T08:40:46.068Z,7.97
2023-05-20T08:43:52.903Z,9.07
2023-05-20T08:47:00.166Z,12.23
2023-05-20T08:50:04.889Z,7.00
2023-05-20T08:53:10.329Z,9.00
2023-05-20T08:56:14.206Z,7.10
2023-05-20T08:59:18.158Z,8.40
2023-05-20T09:02:20.594Z,7.87
2023-05-20T09:05:23.601Z,8.23
2023-05-20T09:08:29.119Z,8.83
2023-05-20T09:11:32.013Z,9.75
2023-05-20T09:14:34.530Z,8.00
2023-05-20T09:17:38.841Z,11.18
2023-05-20T09:20:41.849Z,7.78
2023-05-20T09:23:49.378Z,7.90
2023-05-20T09:26:52.594Z,8.13
2023-05-20T09:29:55.476Z,8.05
2023-05-20T09:33:00.873Z,6.53
2023-05-20T09:36:10.868Z,7.57
2023-05-20T09:39:16.372Z,7.53
2023-05-20T09:42:23.851Z,6.40
2023-05-20T09:45:27.210Z,7.95
2023-05-20T09:48:34.123Z,7.05
2023-05-20T09:51:42.168Z,6.78
2023-05-20T09:54:45.574Z,6.60
2023-05-20T09:57:48.239Z,5.45
2023-05-20T10:00:52.073Z,5.78
2023-05-20T10:03:55.377Z,5.40
2023-05-20T10:07:34.040Z,8.02
2023-05-20T10:10:51.162Z,5.70
2023-05-20T10:14:32.615Z,9.80
2023-05-20T10:18:06.362Z,6.03
2023-05-20T10:21:18.884Z,5.62
2023-05-20T10:24:31.253Z,5.03
2023-05-20T10:27:46.569Z,8.13
2023-05-20T10:30:52.429Z,8.75
2023-05-20T10:33:55.017Z,12.48
2023-05-20T10:36:59.428Z,5.32
2023-05-20T10:40:11.695Z,8.23
2023-05-20T10:43:19.471Z,5.90
2023-05-20T10:46:33.014Z,6.15
2023-05-20T10:49:48.821Z,8.02
2023-05-20T10:52:51.408Z,7.70
2023-05-20T10:56:00.301Z,6.35
2023-05-20T10:59:03.238Z,5.93
2023-05-20T11:02:07.953Z,5.07
2023-05-20T11:05:12.805Z,7.15
2023-05-20T11:08:27.648Z,4.80
2023-05-20T11:11:31.494Z,6.68
2023-05-20T11:14:35.623Z,5.50
2023-05-20T11:17:38.236Z,6.00
2023-05-20T11:20:41.452Z,6.40
2023-05-20T11:23:44.076Z,10.57
2023-05-20T11:26:48.660Z,9.52
2023-05-20T11:29:52.710Z,6.60
2023-05-20T11:32:58.463Z,6.87
2023-05-20T11:36:02.501Z,6.45
2023-05-20T11:39:07.223Z,6.03
2023-05-20T11:42:10.364Z,6.62
2023-05-20T11:45:14.809Z,6.93
2023-05-20T11:48:17.172Z,8.02
2023-05-20T11:51:32.765Z,5.95
2023-05-20T11:54:36.504Z,6.95
2023-05-20T11:57:41.235Z,5.87
2023-05-20T12:03:55.290Z,6.05
2023-05-20T12:06:58.014Z,7.40
2023-05-20T12:10:00.799Z,5.90
2023-05-20T12:13:03.479Z,6.25
2023-05-20T12:16:06.887Z,5.97
2023-05-20T12:19:09.649Z,8.45
2023-05-20T12:22:12.573Z,6.37
2023-05-20T12:25:16.944Z,6.82
2023-05-20T12:28:19.789Z,8.07
2023-05-20T12:31:22.346Z,8.33
2023-05-20T12:34:25.176Z,7.53
2023-05-20T12:37:31.870Z,5.00
2023-05-20T12:40:40.496Z,9.45
2023-05-20T12:43:42.914Z,5.37
2023-05-20T12:46:45.708Z,6.17
2023-05-20T12:49:48.052Z,6.32
2023-05-20T12:52:51.046Z,6.62
2023-05-20T12:55:58.745Z,7.93
2023-05-20T12:59:02.204Z,5.62
2023-05-20T13:02:04.943Z,8.00
2023-05-20T13:05:08.559Z,7.32
2023-05-20T13:08:12.856Z,7.05
2023-05-20T13:11:16.035Z,7.37
2023-05-20T13:14:18.715Z,7.28
2023-05-20T13:17:24.844Z,7.03
2023-05-20T13:20:27.582Z,6.40
2023-05-20T13:23:30.611Z,5.15
2023-05-20T13:26:32.962Z,5.82
2023-05-20T13:29:35.696Z,4.60
2023-05-20T13:32:38.179Z,9.17
2023-05-20T13:35:40.940Z,6.85
2023-05-20T13:38:43.573Z,7.40
2023-05-20T13:41:46.699Z,6.28
2023-05-20T13:44:49.184Z,6.97
2023-05-20T13:47:52.396Z,4.63
2023-05-20T13:50:55.144Z,9.50
2023-05-20T13:53:58.073Z,5.55
2023-05-20T13:57:03.276Z,7.55
2023-05-20T14:00:09.656Z,5.03
2023-05-20T14:03:12.049Z,6.80
2023-05-20T14:06:19.028Z,6.90
2023-05-20T14:09:21.606Z,9.55
2023-05-20T14:12:24.572Z,5.03
2023-05-20T14:15:31.430Z,5.45
2023-05-20T14:18:34.551Z,5.73
2023-05-20T14:21:37.121Z,4.62
2023-05-20T14:24:39.923Z,5.78
2023-05-20T14:27:43.601Z,5.65
2023-05-20T14:30:46.499Z,6.53
2023-05-20T14:33:49.939Z,6.80
2023-05-20T14:36:57.636Z,4.05
2023-05-20T14:40:05.694Z,9.13
2023-05-20T14:43:08.686Z,5.53
2023-05-20T14:46:11.456Z,6.57
2023-05-20T14:49:14.485Z,5.10
2023-05-20T14:52:19.355Z,4.68
2023-05-20T14:55:22.225Z,4.90
2023-05-20T14:58:24.857Z,5.12
2023-05-20T15:01:27.616Z,5.55
2023-05-20T15:04:31.003Z,4.13
2023-05-20T15:07:34.837Z,5.62
2023-05-20T15:10:42.903Z,7.85
2023-05-20T15:13:47.770Z,6.68
2023-05-20T15:16:52.115Z,4.65
2023-05-20T15:19:55.049Z,9.27
2023-05-20T15:22:59.143Z,6.43
2023-05-20T15:26:03.415Z,6.07
2023-05-20T15:29:05.943Z,6.90
2023-05-20T15:32:13.513Z,5.82
2023-05-20T15:35:17.090Z,9.57
2023-05-20T15:38:21.177Z,8.82
2023-05-20T15:41:23.592Z,4.65
2023-05-20T15:44:31.879Z,6.43
2023-05-20T15:47:34.371Z,5.93
2023-05-20T15:50:37.385Z,8.57
2023-05-20T15:53:40.814Z,6.97
2023-05-20T15:56:43.890Z,6.45
2023-05-20T15:59:47.608Z,5.10
2023-05-20T16:03:00.547Z,6.32
2023-05-20T16:06:03.372Z,5.90
2023-05-20T16:09:07.901Z,7.07
2023-05-20T16:12:12.427Z,6.28
2023-05-20T16:15:15.085Z,5.97
2023-05-20T16:18:20.590Z,7.90
2023-05-20T16:21:28.112Z,8.20
2023-05-20T16:24:31.290Z,7.37
2023-05-20T16:27:33.900Z,5.82
2023-05-20T16:30:36.934Z,10.85
2023-05-20T16:33:39.704Z,9.52
2023-05-20T16:36:42.662Z,8.80
2023-05-20T16:39:45.192Z,8.13
2023-05-20T16:42:48.023Z,7.60
2023-05-20T16:45:50.655Z,8.65
2023-05-20T16:48:55.572Z,9.32
2023-05-20T16:51:58.752Z,8.33
2023-05-20T16:55:03.955Z,5.97
2023-05-20T16:58:06.607Z,6.75
2023-05-20T17:01:09.398Z,6.75
2023-05-20T17:04:13.098Z,7.53
2023-05-20T17:07:16.188Z,9.13
2023-05-20T17:10:18.871Z,7.45
2023-05-20T17:13:24.831Z,10.55
2023-05-20T17:16:27.539Z,9.13
2023-05-20T17:19:31.803Z,9.48
2023-05-20T17:22:35.292Z,5.93
2023-05-20T17:25:38.130Z,6.85
2023-05-20T17:28:43.222Z,6.37
2023-05-20T17:31:46.000Z,5.97
2023-05-20T17:34:48.464Z,8.20
2023-05-20T17:37:53.534Z,13.17
2023-05-20T17:40:56.441Z,9.52
2023-05-20T17:43:59.129Z,7.65
2023-05-20T17:47:01.711Z,8.55
2023-05-20T17:50:06.035Z,7.82
2023-05-20T17:53:08.526Z,7.80
2023-05-20T17:56:22.948Z,7.62
2023-05-20T17:59:25.531Z,11.27
2023-05-20T18:02:31.512Z,10.32
2023-05-20T18:05:36.736Z,8.55
2023-05-20T18:08:39.366Z,8.73
2023-05-20T18:11:42.709Z,8.00
2023-05-20T18:14:45.241Z,8.95
2023-05-20T18:17:48.434Z,7.18
2023-05-20T18:20:51.122Z,10.38
2023-05-20T18:23:54.151Z,10.93
2023-05-20T18:27:00.112Z,7.40
2023-05-20T18:30:02.816Z,7.32
2023-05-20T18:33:05.224Z,7.35
2023-05-20T18:36:08.153Z,7.28
2023-05-20T18:39:14.070Z,8.23
2023-05-20T18:42:19.731Z,8.55
2023-05-20T18:45:22.169Z,8.27
2023-05-20T18:48:26.974Z,12.65
2023-05-20T18:51:33.236Z,8.05
2023-05-20T18:54:36.570Z,8.47
2023-05-20T18:57:43.383Z,7.93
2023-05-20T19:00:46.344Z,8.55
2023-05-20T19:03:48.816Z,6.30
2023-05-20T19:06:53.056Z,6.80
2023-05-20T19:09:56.949Z,6.83
2023-05-20T19:13:02.767Z,9.88
2023-05-20T19:16:05.637Z,10.00
2023-05-20T19:19:08.747Z,7.05
2023-05-20T19:22:11.436Z,7.57
2023-05-20T19:25:14.316Z,6.67
2023-05-20T19:28:16.688Z,8.70
2023-05-20T19:31:21.129Z,6.90
2023-05-20T19:34:24.421Z,6.68
2023-05-20T19:37:27.396Z,9.18
2023-05-20T19:40:29.889Z,6.90
2023-05-20T19:43:36.565Z,8.90
2023-05-20T19:46:41.598Z,9.32
2023-05-20T19:49:48.282Z,9.48
2023-05-20T19:52:50.762Z,11.55
2023-05-20T19:55:53.663Z,7.60
2023-05-20T19:58:57.675Z,10.10
2023-05-20T20:02:03.022Z,7.10
2023-05-20T20:05:07.397Z,8.27
2023-05-20T20:08:10.995Z,5.85
2023-05-20T20:11:14.206Z,7.87
2023-05-20T20:14:16.643Z,7.68
2023-05-20T20:17:23.374Z,9.85
2023-05-20T20:20:30.195Z,7.43
2023-05-20T20:23:36.851Z,7.12
2023-05-20T20:26:39.296Z,6.37
2023-05-20T20:29:42.826Z,9.18
2023-05-20T20:32:48.291Z,7.53
2023-05-20T20:35:54.495Z,8.23
2023-05-20T20:39:02.711Z,5.90
2023-05-20T20:42:09.232Z,6.80
2023-05-20T20:45:18.243Z,8.68
2023-05-20T20:48:26.829Z,7.68
2023-05-20T20:51:31.891Z,5.55
2023-05-20T20:54:34.749Z,7.70
2023-05-20T20:57:37.253Z,6.97
2023-05-20T21:00:44.575Z,7.70
2023-05-20T21:03:48.542Z,6.97
2023-05-20T21:06:52.521Z,5.43
2023-05-20T21:09:55.275Z,6.35
2023-05-20T21:12:58.657Z,8.60
2023-05-20T21:16:01.392Z,5.82
2023-05-20T21:19:04.352Z,9.48
2023-05-20T21:22:06.802Z,5.60
2023-05-20T21:25:14.995Z,8.13
2023-05-20T21:28:17.415Z,13.23
2023-05-20T21:31:20.820Z,8.35
2023-05-20T21:34:23.236Z,8.55
2023-05-20T21:37:25.898Z,10.95
2023-05-20T21:40:28.357Z,13.02
2023-05-20T21:43:31.173Z,9.43
2023-05-20T21:46:35.983Z,12.05
2023-05-20T21:49:39.213Z,8.52
2023-05-20T21:52:41.647Z,7.40
2023-05-20T21:55:47.541Z,6.25
2023-05-20T21:58:50.266Z,8.20
2023-05-20T22:01:53.045Z,7.22
2023-05-20T22:04:57.774Z,9.50
2023-05-20T22:08:00.615Z,8.52
2023-05-20T22:11:07.482Z,8.32
2023-05-20T22:14:10.110Z,5.37
2023-05-20T22:17:12.990Z,9.05
2023-05-20T22:20:15.456Z,6.45
2023-05-20T22:23:18.674Z,6.70
2023-05-20T22:26:21.249Z,8.70
2023-05-20T22:29:24.039Z,7.27
2023-05-20T22:32:26.575Z,6.45
2023-05-20T22:35:29.369Z,6.75
2023-05-20T22:38:31.873Z,7.60
2023-05-20T22:41:35.245Z,6.00
2023-05-20T22:44:39.483Z,7.00
2023-05-20T22:47:42.197Z,9.18
2023-05-20T22:50:48.296Z,7.87
2023-05-20T22:53:51.593Z,6.65
2023-05-20T22:56:58.003Z,7.65
2023-05-20T23:00:01.471Z,6.87
2023-05-20T23:03:04.054Z,7.72
2023-05-20T23:06:06.801Z,7.32
2023-05-20T23:09:09.305Z,8.70
2023-05-20T23:12:12.474Z,6.53
2023-05-20T23:15:15.037Z,6.30
2023-05-20T23:18:18.662Z,5.78
2023-05-20T23:21:23.932Z,6.12
2023-05-20T23:24:26.937Z,5.57
2023-05-20T23:27:29.559Z,6.15
2023-05-20T23:30:32.303Z,5.53
2023-05-20T23:33:34.905Z,5.97
2023-05-20T23:36:41.922Z,8.50
2023-05-20T23:39:44.303Z,6.07
2023-05-20T23:42:46.992Z,8.35
2023-05-20T23:45:51.218Z,6.47
2023-05-20T23:48:54.212Z,8.93
2023-05-20T23:51:56.680Z,6.57
2023-05-20T23:55:00.342Z,6.75
2023-05-20T23:58:03.119Z,6.87
